C.endeavour — E5U2790 — position and weather

sailwx.info

Track history (hours):
 
Tides and Currents Weather Stations Pressure Air Temp Water Temp Dewpoint Dewpoint Depression Visibility Wind Speed Wind Dir Waves Ship Positions

C.endeavour

Last reported at 2017-Sep-20 02:50 UTC. Time now 2017-Sep-20 23:39 UTC.
Position N 40°39' E 003°23'.

Length 88 m; draft 5 m.

Type: Cargo ship. MMSI: 518843000.

Date/timePositionNaut miles runAvg speedWind from/ knotsBaromVisibWave heightAir tempDewpointWater temp
2017-Sep-20 02:50N 40°39' E 003°23'4 7.4
2017-Sep-20 02:21N 40°41' E 003°19'4 7.7
2017-Sep-20 01:51N 40°43' E 003°14'5 7.8
2017-Sep-20 01:14N 40°46' E 003°09'2 7.8
2017-Sep-20 01:00N 40°47' E 003°07'4 7.6
2017-Sep-20 00:25N 40°50' E 003°02'4 8.1
2017-Sep-19 23:56N 40°52' E 002°58'3 7.9
2017-Sep-19 23:30N 40°54' E 002°55'4 8.2
2017-Sep-19 22:57N 40°57' E 002°50'35 8.2
2017-Sep-19 18:43N 41°16' E 002°12'2 7.5
2017-Sep-19 18:30N 41°17' E 002°11'3 6.5
2017-Sep-19 18:00N 41°20' E 002°10'1 1.3
2017-Sep-19 17:25N 41°21' E 002°09'  
2017-Sep-15 18:29N 43°09' E 006°59'510.6
2017-Sep-15 17:59N 43°12' E 007°05'510.4
2017-Sep-15 17:28N 43°15' E 007°11'510.4
2017-Sep-15 17:00N 43°18' E 007°16'1010.5
2017-Sep-15 16:05N 43°24' E 007°27'1610.1
2017-Sep-15 14:32N 43°33' E 007°44'110.0
2017-Sep-15 14:29N 43°34' E 007°45'9 9.8
2017-Sep-15 13:33N 43°39' E 007°55'1 9.7
2017-Sep-15 13:30N 43°40' E 007°56'26 9.9
2017-Sep-15 10:52N 43°58' E 008°22'3 9.6
2017-Sep-15 10:30N 44°00' E 008°24'5 9.4
2017-Sep-15 10:00N 44°05' E 008°27'5 9.6
2017-Sep-15 09:30N 44°09' E 008°29'5 9.7
2017-Sep-15 09:00N 44°14' E 008°31'5 9.6
2017-Sep-15 08:30N 44°19' E 008°31'1 1.6
2017-Sep-15 08:00N 44°19' E 008°30'0 0.0
2017-Sep-15 07:30N 44°19' E 008°30'0 0.0
2017-Sep-15 07:00N 44°19' E 008°30'0 0.0
2017-Sep-15 06:30N 44°19' E 008°30'0 0.0
2017-Sep-15 06:00N 44°19' E 008°30'0 0.0
2017-Sep-15 05:30N 44°19' E 008°30'0 0.0
2017-Sep-15 05:00N 44°19' E 008°30'0 0.0
2017-Sep-15 04:30N 44°19' E 008°30'0 0.0
2017-Sep-15 04:00N 44°19' E 008°30'0 0.0
2017-Sep-15 03:30N 44°19' E 008°30'0 0.0
2017-Sep-15 03:00N 44°19' E 008°30'0 0.0
2017-Sep-15 02:30N 44°19' E 008°30'0 0.0
2017-Sep-15 02:00N 44°19' E 008°30'0 0.0
2017-Sep-15 01:30N 44°19' E 008°30'0 0.0
2017-Sep-15 01:00N 44°19' E 008°30'0 0.0
2017-Sep-15 00:30N 44°19' E 008°30'0 0.0
2017-Sep-15 00:00N 44°19' E 008°30'0 0.0
2017-Sep-14 23:30N 44°19' E 008°30'0 0.0
2017-Sep-14 23:00N 44°19' E 008°30'0 0.0
2017-Sep-14 22:30N 44°19' E 008°30'0 0.0
2017-Sep-14 22:00N 44°19' E 008°30'0 0.0
2017-Sep-14 21:30N 44°19' E 008°30'0 0.0
2017-Sep-14 21:00N 44°19' E 008°30'0 0.0
2017-Sep-14 20:30N 44°19' E 008°30'0 0.0
2017-Sep-14 20:00N 44°19' E 008°30'0 0.0
2017-Sep-14 19:30N 44°19' E 008°30'0 0.0
2017-Sep-14 19:00N 44°19' E 008°30'0 0.0
2017-Sep-14 18:30N 44°19' E 008°30'0 0.0
2017-Sep-14 18:00N 44°19' E 008°30'0 0.0
2017-Sep-14 17:24N 44°19' E 008°30'0 0.0
2017-Sep-14 17:00N 44°19' E 008°30'0 0.0
2017-Sep-14 16:30N 44°19' E 008°30'0 0.0
2017-Sep-14 15:57N 44°19' E 008°30'0 0.0
2017-Sep-14 15:27N 44°19' E 008°30'0 0.0
2017-Sep-14 15:00N 44°19' E 008°30'0 0.0
2017-Sep-14 14:30N 44°19' E 008°30'0 0.0
2017-Sep-14 14:00N 44°19' E 008°30'0 0.0
2017-Sep-14 13:30N 44°19' E 008°30'0 0.0
2017-Sep-14 13:00N 44°19' E 008°30'0 0.0
2017-Sep-14 12:30N 44°19' E 008°30'0 0.0
2017-Sep-14 12:00N 44°19' E 008°30'0 0.0
2017-Sep-14 11:30N 44°19' E 008°30'0 0.0
2017-Sep-14 11:00N 44°19' E 008°30'0 0.0
2017-Sep-14 10:30N 44°19' E 008°30'0 0.0
2017-Sep-14 10:00N 44°19' E 008°30'0 0.0
2017-Sep-14 09:30N 44°19' E 008°30'0 0.0
2017-Sep-14 09:00N 44°19' E 008°30'0 0.0
2017-Sep-14 08:30N 44°19' E 008°30'0 0.0
2017-Sep-14 08:00N 44°19' E 008°30'0 0.0
2017-Sep-14 07:30N 44°19' E 008°30'0 0.0
2017-Sep-14 07:00N 44°19' E 008°30'0 0.0
2017-Sep-14 06:30N 44°19' E 008°30'0 0.0
2017-Sep-14 06:00N 44°19' E 008°30'0 0.0
2017-Sep-14 05:30N 44°19' E 008°30'0 0.0
2017-Sep-14 05:00N 44°19' E 008°30'0 0.0
2017-Sep-14 04:30N 44°19' E 008°30'0 0.0
2017-Sep-14 04:00N 44°19' E 008°30'0 0.0
2017-Sep-14 03:30N 44°19' E 008°30'0 0.0
2017-Sep-14 03:00N 44°19' E 008°30'0 0.0
2017-Sep-14 02:30N 44°19' E 008°30'0 0.0
2017-Sep-14 02:00N 44°19' E 008°30'0 0.0
2017-Sep-14 01:30N 44°19' E 008°30'0 0.0
2017-Sep-14 01:00N 44°19' E 008°30'0 0.0
2017-Sep-14 00:30N 44°19' E 008°30'0 0.0
2017-Sep-14 00:00N 44°19' E 008°30'0 0.0
2017-Sep-13 23:30N 44°19' E 008°30'0 0.0
2017-Sep-13 23:00N 44°19' E 008°30'0 0.0
2017-Sep-13 22:30N 44°19' E 008°30'0 0.0
2017-Sep-13 22:00N 44°19' E 008°30'0 0.0
2017-Sep-13 21:30N 44°19' E 008°30'0 0.0
2017-Sep-13 21:00N 44°19' E 008°30'0 0.0
2017-Sep-13 20:30N 44°19' E 008°30'0 0.0
2017-Sep-13 20:00N 44°19' E 008°30'0 0.0
2017-Sep-13 19:30N 44°19' E 008°30'0 0.0
2017-Sep-13 19:00N 44°19' E 008°30'0 0.0
2017-Sep-13 18:30N 44°19' E 008°30'0 0.0
2017-Sep-13 18:00N 44°19' E 008°30'0 0.0
2017-Sep-13 17:30N 44°19' E 008°30'0 0.0
2017-Sep-13 17:00N 44°19' E 008°30'0 0.0
2017-Sep-13 16:30N 44°19' E 008°30'0 0.0
2017-Sep-13 16:00N 44°19' E 008°30'0 0.0
2017-Sep-13 15:30N 44°19' E 008°30'0 0.0
2017-Sep-13 15:00N 44°19' E 008°30'0 0.0
2017-Sep-13 14:30N 44°19' E 008°30'0 0.0
2017-Sep-13 14:00N 44°19' E 008°30'0 0.0
2017-Sep-13 13:30N 44°19' E 008°30'0 0.0
2017-Sep-13 13:00N 44°19' E 008°30'0 0.0
2017-Sep-13 12:30N 44°19' E 008°30'0 0.0
2017-Sep-13 12:00N 44°19' E 008°30'0 0.0
2017-Sep-13 11:30N 44°19' E 008°30'0 0.0
2017-Sep-13 11:00N 44°19' E 008°30'0 0.0
2017-Sep-13 10:30N 44°19' E 008°30'0 0.0
2017-Sep-13 10:00N 44°19' E 008°30'0 0.0
2017-Sep-13 09:30N 44°19' E 008°30'0 0.0
2017-Sep-13 09:00N 44°19' E 008°30'0 0.0
2017-Sep-13 08:30N 44°19' E 008°30'0 0.0
2017-Sep-13 08:00N 44°19' E 008°30'0 0.0
2017-Sep-13 07:30N 44°19' E 008°30'0 0.0
2017-Sep-13 07:00N 44°19' E 008°30'0 0.0
2017-Sep-13 06:30N 44°19' E 008°30'0 0.0
2017-Sep-13 06:00N 44°19' E 008°30'0 0.0
2017-Sep-13 05:30N 44°19' E 008°30'0 0.0
2017-Sep-13 05:00N 44°19' E 008°30'0 0.0
2017-Sep-13 04:30N 44°19' E 008°30'0 0.0
2017-Sep-13 04:00N 44°19' E 008°30'0 0.0
2017-Sep-13 03:30N 44°19' E 008°30'0 0.0
2017-Sep-13 03:00N 44°19' E 008°30'0 0.0
2017-Sep-13 02:30N 44°19' E 008°30'0 0.0
2017-Sep-13 02:00N 44°19' E 008°30'0 0.0
2017-Sep-13 01:30N 44°19' E 008°30'0 0.0
2017-Sep-13 01:00N 44°19' E 008°30'0 0.0
2017-Sep-13 00:30N 44°19' E 008°30'0 0.0
2017-Sep-13 00:00N 44°19' E 008°30'0 0.0
2017-Sep-12 23:30N 44°19' E 008°30'0 0.0
2017-Sep-12 23:00N 44°19' E 008°30'0 0.0
2017-Sep-12 22:30N 44°19' E 008°30'0 0.0
2017-Sep-12 22:00N 44°19' E 008°30'0 0.0
2017-Sep-12 21:30N 44°19' E 008°30'0 0.0
2017-Sep-12 21:00N 44°19' E 008°30'0 0.0
2017-Sep-12 20:30N 44°19' E 008°30'0 0.0
2017-Sep-12 20:00N 44°19' E 008°30'0 0.0
2017-Sep-12 19:30N 44°19' E 008°30'0 0.0
2017-Sep-12 19:00N 44°19' E 008°30'0 0.0
2017-Sep-12 18:30N 44°19' E 008°30'0 0.0
2017-Sep-12 18:00N 44°19' E 008°30'0 0.0
2017-Sep-12 17:30N 44°19' E 008°30'0 0.0
2017-Sep-12 17:00N 44°19' E 008°30'0 0.0
2017-Sep-12 16:30N 44°19' E 008°30'0 0.0
2017-Sep-12 16:00N 44°19' E 008°30'0 0.0
2017-Sep-12 15:30N 44°19' E 008°30'0 0.0
2017-Sep-12 15:00N 44°19' E 008°30'0 0.0
2017-Sep-12 14:30N 44°19' E 008°30'0 0.0
2017-Sep-12 14:00N 44°19' E 008°30'0 0.0
2017-Sep-12 13:30N 44°19' E 008°30'0 0.0
2017-Sep-12 13:00N 44°19' E 008°30'0 0.0
2017-Sep-12 12:30N 44°19' E 008°30'0 0.0
2017-Sep-12 12:00N 44°19' E 008°30'0 0.0
2017-Sep-12 11:30N 44°19' E 008°30'0 0.0
2017-Sep-12 11:00N 44°19' E 008°30'0 0.0
2017-Sep-12 10:30N 44°19' E 008°30'0 0.0
2017-Sep-12 10:00N 44°19' E 008°30'0 0.0
2017-Sep-12 09:30N 44°19' E 008°30'0 0.0
2017-Sep-12 09:00N 44°19' E 008°30'0 0.0
2017-Sep-12 08:30N 44°19' E 008°30'0 0.0
2017-Sep-12 08:00N 44°19' E 008°30'0 0.0
2017-Sep-12 07:30N 44°19' E 008°30'0 0.0
2017-Sep-12 07:00N 44°19' E 008°30'0 0.0
2017-Sep-12 06:30N 44°19' E 008°30'0 0.0
2017-Sep-12 06:00N 44°19' E 008°30'0 0.0
2017-Sep-12 05:30N 44°19' E 008°30'0 0.8
2017-Sep-12 05:00N 44°19' E 008°30'2 3.2
2017-Sep-12 04:30N 44°18' E 008°32'3 6.7
2017-Sep-12 04:00N 44°17' E 008°37'4 7.3
2017-Sep-12 03:30N 44°15' E 008°41'4 7.5
2017-Sep-12 03:00N 44°13' E 008°46'4 7.3
2017-Sep-12 02:30N 44°12' E 008°50'4 7.3
2017-Sep-12 02:00N 44°10' E 008°55'4 7.4
2017-Sep-12 01:30N 44°09' E 008°60'4 7.5
2017-Sep-12 01:00N 44°07' E 009°04'4 7.7
2017-Sep-12 00:30N 44°05' E 009°09'4 7.8
2017-Sep-12 00:00N 44°03' E 009°14'4 7.5
2017-Sep-11 23:30N 44°02' E 009°18'4 7.6
2017-Sep-11 23:00N 43°60' E 009°23'4 7.6
2017-Sep-11 22:30N 43°58' E 009°28'4 7.6
2017-Sep-11 22:00N 43°56' E 009°32'4 7.5
2017-Sep-11 21:30N 43°54' E 009°37'4 7.5
2017-Sep-11 21:00N 43°52' E 009°41'4 7.3
2017-Sep-11 20:30N 43°50' E 009°45'4 7.5
2017-Sep-11 20:00N 43°46' E 009°47'4 7.5
2017-Sep-11 19:30N 43°43' E 009°49'4 7.1
2017-Sep-11 19:00N 43°40' E 009°52'3 7.0
2017-Sep-11 18:30N 43°37' E 009°55'3 6.4
2017-Sep-11 18:00N 43°35' E 009°58'3 6.4
2017-Sep-11 17:30N 43°34' E 010°02'4 7.0
2017-Sep-11 17:00N 43°31' E 010°04'4 7.9
2017-Sep-11 16:30N 43°27' E 010°04'4 7.1
2017-Sep-11 16:00N 43°23' E 010°05'4 7.8
2017-Sep-11 15:30N 43°21' E 009°60'4 8.0
2017-Sep-11 15:00N 43°20' E 009°55'4 8.4
2017-Sep-11 14:30N 43°18' E 009°50'4 8.0
2017-Sep-11 14:00N 43°16' E 009°45'4 7.8
2017-Sep-11 13:28N 43°13' E 009°41'4 7.7
2017-Sep-11 13:00N 43°11' E 009°37'4 5.6
2017-Sep-11 12:16N 43°06' E 009°37'2 6.9
2017-Sep-11 12:00N 43°05' E 009°38'  
Track history (hours):
 
Tides and Currents Weather Stations Pressure Air Temp Water Temp Dewpoint Dewpoint Depression Visibility Wind Speed Wind Dir Waves Ship Positions

C.endeavour

Last reported at 2017-Sep-20 02:50 UTC. Time now 2017-Sep-20 23:39 UTC.
Position N 40°39' E 003°23'.

Length 88 m; draft 5 m.

Type: Cargo ship. MMSI: 518843000.

Date/timePositionNaut miles runAvg speedWind from/ knotsBaromVisibWave heightAir tempDewpointWater temp
2017-Sep-20 02:50N 40°39' E 003°23'4 7.4
2017-Sep-20 02:21N 40°41' E 003°19'4 7.7
2017-Sep-20 01:51N 40°43' E 003°14'5 7.8
2017-Sep-20 01:14N 40°46' E 003°09'2 7.8
2017-Sep-20 01:00N 40°47' E 003°07'4 7.6
2017-Sep-20 00:25N 40°50' E 003°02'4 8.1
2017-Sep-19 23:56N 40°52' E 002°58'3 7.9
2017-Sep-19 23:30N 40°54' E 002°55'4 8.2
2017-Sep-19 22:57N 40°57' E 002°50'35 8.2
2017-Sep-19 18:43N 41°16' E 002°12'2 7.5
2017-Sep-19 18:30N 41°17' E 002°11'3 6.5
2017-Sep-19 18:00N 41°20' E 002°10'1 1.3
2017-Sep-19 17:25N 41°21' E 002°09'  
2017-Sep-15 18:29N 43°09' E 006°59'510.6
2017-Sep-15 17:59N 43°12' E 007°05'510.4
2017-Sep-15 17:28N 43°15' E 007°11'510.4
2017-Sep-15 17:00N 43°18' E 007°16'1010.5
2017-Sep-15 16:05N 43°24' E 007°27'1610.1
2017-Sep-15 14:32N 43°33' E 007°44'110.0
2017-Sep-15 14:29N 43°34' E 007°45'9 9.8
2017-Sep-15 13:33N 43°39' E 007°55'1 9.7
2017-Sep-15 13:30N 43°40' E 007°56'26 9.9
2017-Sep-15 10:52N 43°58' E 008°22'3 9.6
2017-Sep-15 10:30N 44°00' E 008°24'5 9.4
2017-Sep-15 10:00N 44°05' E 008°27'5 9.6
2017-Sep-15 09:30N 44°09' E 008°29'5 9.7
2017-Sep-15 09:00N 44°14' E 008°31'5 9.6
2017-Sep-15 08:30N 44°19' E 008°31'1 1.6
2017-Sep-15 08:00N 44°19' E 008°30'0 0.0
2017-Sep-15 07:30N 44°19' E 008°30'0 0.0
2017-Sep-15 07:00N 44°19' E 008°30'0 0.0
2017-Sep-15 06:30N 44°19' E 008°30'0 0.0
2017-Sep-15 06:00N 44°19' E 008°30'0 0.0
2017-Sep-15 05:30N 44°19' E 008°30'0 0.0
2017-Sep-15 05:00N 44°19' E 008°30'0 0.0
2017-Sep-15 04:30N 44°19' E 008°30'0 0.0
2017-Sep-15 04:00N 44°19' E 008°30'0 0.0
2017-Sep-15 03:30N 44°19' E 008°30'0 0.0
2017-Sep-15 03:00N 44°19' E 008°30'0 0.0
2017-Sep-15 02:30N 44°19' E 008°30'0 0.0
2017-Sep-15 02:00N 44°19' E 008°30'0 0.0
2017-Sep-15 01:30N 44°19' E 008°30'0 0.0
2017-Sep-15 01:00N 44°19' E 008°30'0 0.0
2017-Sep-15 00:30N 44°19' E 008°30'0 0.0
2017-Sep-15 00:00N 44°19' E 008°30'0 0.0
2017-Sep-14 23:30N 44°19' E 008°30'0 0.0
2017-Sep-14 23:00N 44°19' E 008°30'0 0.0
2017-Sep-14 22:30N 44°19' E 008°30'0 0.0
2017-Sep-14 22:00N 44°19' E 008°30'0 0.0
2017-Sep-14 21:30N 44°19' E 008°30'0 0.0
2017-Sep-14 21:00N 44°19' E 008°30'0 0.0
2017-Sep-14 20:30N 44°19' E 008°30'0 0.0
2017-Sep-14 20:00N 44°19' E 008°30'0 0.0
2017-Sep-14 19:30N 44°19' E 008°30'0 0.0
2017-Sep-14 19:00N 44°19' E 008°30'0 0.0
2017-Sep-14 18:30N 44°19' E 008°30'0 0.0
2017-Sep-14 18:00N 44°19' E 008°30'0 0.0
2017-Sep-14 17:24N 44°19' E 008°30'0 0.0
2017-Sep-14 17:00N 44°19' E 008°30'0 0.0
2017-Sep-14 16:30N 44°19' E 008°30'0 0.0
2017-Sep-14 15:57N 44°19' E 008°30'0 0.0
2017-Sep-14 15:27N 44°19' E 008°30'0 0.0
2017-Sep-14 15:00N 44°19' E 008°30'0 0.0
2017-Sep-14 14:30N 44°19' E 008°30'0 0.0
2017-Sep-14 14:00N 44°19' E 008°30'0 0.0
2017-Sep-14 13:30N 44°19' E 008°30'0 0.0
2017-Sep-14 13:00N 44°19' E 008°30'0 0.0
2017-Sep-14 12:30N 44°19' E 008°30'0 0.0
2017-Sep-14 12:00N 44°19' E 008°30'0 0.0
2017-Sep-14 11:30N 44°19' E 008°30'0 0.0
2017-Sep-14 11:00N 44°19' E 008°30'0 0.0
2017-Sep-14 10:30N 44°19' E 008°30'0 0.0
2017-Sep-14 10:00N 44°19' E 008°30'0 0.0
2017-Sep-14 09:30N 44°19' E 008°30'0 0.0
2017-Sep-14 09:00N 44°19' E 008°30'0 0.0
2017-Sep-14 08:30N 44°19' E 008°30'0 0.0
2017-Sep-14 08:00N 44°19' E 008°30'0 0.0
2017-Sep-14 07:30N 44°19' E 008°30'0 0.0
2017-Sep-14 07:00N 44°19' E 008°30'0 0.0
2017-Sep-14 06:30N 44°19' E 008°30'0 0.0
2017-Sep-14 06:00N 44°19' E 008°30'0 0.0
2017-Sep-14 05:30N 44°19' E 008°30'0 0.0
2017-Sep-14 05:00N 44°19' E 008°30'0 0.0
2017-Sep-14 04:30N 44°19' E 008°30'0 0.0
2017-Sep-14 04:00N 44°19' E 008°30'0 0.0
2017-Sep-14 03:30N 44°19' E 008°30'0 0.0
2017-Sep-14 03:00N 44°19' E 008°30'0 0.0
2017-Sep-14 02:30N 44°19' E 008°30'0 0.0
2017-Sep-14 02:00N 44°19' E 008°30'0 0.0
2017-Sep-14 01:30N 44°19' E 008°30'0 0.0
2017-Sep-14 01:00N 44°19' E 008°30'0 0.0
2017-Sep-14 00:30N 44°19' E 008°30'0 0.0
2017-Sep-14 00:00N 44°19' E 008°30'0 0.0
2017-Sep-13 23:30N 44°19' E 008°30'0 0.0
2017-Sep-13 23:00N 44°19' E 008°30'0 0.0
2017-Sep-13 22:30N 44°19' E 008°30'0 0.0
2017-Sep-13 22:00N 44°19' E 008°30'0 0.0
2017-Sep-13 21:30N 44°19' E 008°30'0 0.0
2017-Sep-13 21:00N 44°19' E 008°30'0 0.0
2017-Sep-13 20:30N 44°19' E 008°30'0 0.0
2017-Sep-13 20:00N 44°19' E 008°30'0 0.0
2017-Sep-13 19:30N 44°19' E 008°30'0 0.0
2017-Sep-13 19:00N 44°19' E 008°30'0 0.0
2017-Sep-13 18:30N 44°19' E 008°30'0 0.0
2017-Sep-13 18:00N 44°19' E 008°30'0 0.0
2017-Sep-13 17:30N 44°19' E 008°30'0 0.0
2017-Sep-13 17:00N 44°19' E 008°30'0 0.0
2017-Sep-13 16:30N 44°19' E 008°30'0 0.0
2017-Sep-13 16:00N 44°19' E 008°30'0 0.0
2017-Sep-13 15:30N 44°19' E 008°30'0 0.0
2017-Sep-13 15:00N 44°19' E 008°30'0 0.0
2017-Sep-13 14:30N 44°19' E 008°30'0 0.0
2017-Sep-13 14:00N 44°19' E 008°30'0 0.0
2017-Sep-13 13:30N 44°19' E 008°30'0 0.0
2017-Sep-13 13:00N 44°19' E 008°30'0 0.0
2017-Sep-13 12:30N 44°19' E 008°30'0 0.0
2017-Sep-13 12:00N 44°19' E 008°30'0 0.0
2017-Sep-13 11:30N 44°19' E 008°30'0 0.0
2017-Sep-13 11:00N 44°19' E 008°30'0 0.0
2017-Sep-13 10:30N 44°19' E 008°30'0 0.0
2017-Sep-13 10:00N 44°19' E 008°30'0 0.0
2017-Sep-13 09:30N 44°19' E 008°30'0 0.0
2017-Sep-13 09:00N 44°19' E 008°30'0 0.0
2017-Sep-13 08:30N 44°19' E 008°30'0 0.0
2017-Sep-13 08:00N 44°19' E 008°30'0 0.0
2017-Sep-13 07:30N 44°19' E 008°30'0 0.0
2017-Sep-13 07:00N 44°19' E 008°30'0 0.0
2017-Sep-13 06:30N 44°19' E 008°30'0 0.0
2017-Sep-13 06:00N 44°19' E 008°30'0 0.0
2017-Sep-13 05:30N 44°19' E 008°30'0 0.0
2017-Sep-13 05:00N 44°19' E 008°30'0 0.0
2017-Sep-13 04:30N 44°19' E 008°30'0 0.0
2017-Sep-13 04:00N 44°19' E 008°30'0 0.0
2017-Sep-13 03:30N 44°19' E 008°30'0 0.0
2017-Sep-13 03:00N 44°19' E 008°30'0 0.0
2017-Sep-13 02:30N 44°19' E 008°30'0 0.0
2017-Sep-13 02:00N 44°19' E 008°30'0 0.0
2017-Sep-13 01:30N 44°19' E 008°30'0 0.0
2017-Sep-13 01:00N 44°19' E 008°30'0 0.0
2017-Sep-13 00:30N 44°19' E 008°30'0 0.0
2017-Sep-13 00:00N 44°19' E 008°30'0 0.0
2017-Sep-12 23:30N 44°19' E 008°30'0 0.0
2017-Sep-12 23:00N 44°19' E 008°30'0 0.0
2017-Sep-12 22:30N 44°19' E 008°30'0 0.0
2017-Sep-12 22:00N 44°19' E 008°30'0 0.0
2017-Sep-12 21:30N 44°19' E 008°30'0 0.0
2017-Sep-12 21:00N 44°19' E 008°30'0 0.0
2017-Sep-12 20:30N 44°19' E 008°30'0 0.0
2017-Sep-12 20:00N 44°19' E 008°30'0 0.0
2017-Sep-12 19:30N 44°19' E 008°30'0 0.0
2017-Sep-12 19:00N 44°19' E 008°30'0 0.0
2017-Sep-12 18:30N 44°19' E 008°30'0 0.0
2017-Sep-12 18:00N 44°19' E 008°30'0 0.0
2017-Sep-12 17:30N 44°19' E 008°30'0 0.0
2017-Sep-12 17:00N 44°19' E 008°30'0 0.0
2017-Sep-12 16:30N 44°19' E 008°30'0 0.0
2017-Sep-12 16:00N 44°19' E 008°30'0 0.0
2017-Sep-12 15:30N 44°19' E 008°30'0 0.0
2017-Sep-12 15:00N 44°19' E 008°30'0 0.0
2017-Sep-12 14:30N 44°19' E 008°30'0 0.0
2017-Sep-12 14:00N 44°19' E 008°30'0 0.0
2017-Sep-12 13:30N 44°19' E 008°30'0 0.0
2017-Sep-12 13:00N 44°19' E 008°30'0 0.0
2017-Sep-12 12:30N 44°19' E 008°30'0 0.0
2017-Sep-12 12:00N 44°19' E 008°30'0 0.0
2017-Sep-12 11:30N 44°19' E 008°30'0 0.0
2017-Sep-12 11:00N 44°19' E 008°30'0 0.0
2017-Sep-12 10:30N 44°19' E 008°30'0 0.0
2017-Sep-12 10:00N 44°19' E 008°30'0 0.0
2017-Sep-12 09:30N 44°19' E 008°30'0 0.0
2017-Sep-12 09:00N 44°19' E 008°30'0 0.0
2017-Sep-12 08:30N 44°19' E 008°30'0 0.0
2017-Sep-12 08:00N 44°19' E 008°30'0 0.0
2017-Sep-12 07:30N 44°19' E 008°30'0 0.0
2017-Sep-12 07:00N 44°19' E 008°30'0 0.0
2017-Sep-12 06:30N 44°19' E 008°30'0 0.0
2017-Sep-12 06:00N 44°19' E 008°30'0 0.0
2017-Sep-12 05:30N 44°19' E 008°30'0 0.8
2017-Sep-12 05:00N 44°19' E 008°30'2 3.2
2017-Sep-12 04:30N 44°18' E 008°32'3 6.7
2017-Sep-12 04:00N 44°17' E 008°37'4 7.3
2017-Sep-12 03:30N 44°15' E 008°41'4 7.5
2017-Sep-12 03:00N 44°13' E 008°46'4 7.3
2017-Sep-12 02:30N 44°12' E 008°50'4 7.3
2017-Sep-12 02:00N 44°10' E 008°55'4 7.4
2017-Sep-12 01:30N 44°09' E 008°60'4 7.5
2017-Sep-12 01:00N 44°07' E 009°04'4 7.7
2017-Sep-12 00:30N 44°05' E 009°09'4 7.8
2017-Sep-12 00:00N 44°03' E 009°14'4 7.5
2017-Sep-11 23:30N 44°02' E 009°18'4 7.6
2017-Sep-11 23:00N 43°60' E 009°23'4 7.6
2017-Sep-11 22:30N 43°58' E 009°28'4 7.6
2017-Sep-11 22:00N 43°56' E 009°32'4 7.5
2017-Sep-11 21:30N 43°54' E 009°37'4 7.5
2017-Sep-11 21:00N 43°52' E 009°41'4 7.3
2017-Sep-11 20:30N 43°50' E 009°45'4 7.5
2017-Sep-11 20:00N 43°46' E 009°47'4 7.5
2017-Sep-11 19:30N 43°43' E 009°49'4 7.1
2017-Sep-11 19:00N 43°40' E 009°52'3 7.0
2017-Sep-11 18:30N 43°37' E 009°55'3 6.4
2017-Sep-11 18:00N 43°35' E 009°58'3 6.4
2017-Sep-11 17:30N 43°34' E 010°02'4 7.0
2017-Sep-11 17:00N 43°31' E 010°04'4 7.9
2017-Sep-11 16:30N 43°27' E 010°04'4 7.1
2017-Sep-11 16:00N 43°23' E 010°05'4 7.8
2017-Sep-11 15:30N 43°21' E 009°60'4 8.0
2017-Sep-11 15:00N 43°20' E 009°55'4 8.4
2017-Sep-11 14:30N 43°18' E 009°50'4 8.0
2017-Sep-11 14:00N 43°16' E 009°45'4 7.8
2017-Sep-11 13:28N 43°13' E 009°41'4 7.7
2017-Sep-11 13:00N 43°11' E 009°37'4 5.6
2017-Sep-11 12:16N 43°06' E 009°37'2 6.9
2017-Sep-11 12:00N 43°05' E 009°38'  

Dump ship's entire track history